Terminal Aerodrome Forecast
Issued by NWS

Home | Current Version | Previous Version | Text Only | Print | Product List | Glossary Off
Versions: 1 2 3 4 5 6 7 8 9 10 11 12 13

000
FTUS43 KGRB 171129
TAFCWA
TAF
KCWA 171129Z 1712/1812 16005KT P6SM FEW250
      TEMPO 1712/1714 4SM BR
     FM180200 23007KT 5SM BR FEW250 WS015/25035KT
     FM180800 27009KT P6SM SCT250 WS015/31035KT=

USA.gov is the U.S. government's official web portal to all federal, state and local government web resources and services.